createdAt,value
2022-08-27T00:02:09.657Z,17.47
2022-08-27T00:04:38.804Z,10.57
2022-08-27T00:07:07.979Z,13.47
2022-08-27T00:09:36.709Z,12.80
2022-08-27T00:12:06.423Z,13.93
2022-08-27T00:14:35.996Z,13.80
2022-08-27T00:17:06.571Z,12.33
2022-08-27T00:19:35.896Z,10.87
2022-08-27T00:22:05.822Z,13.87
2022-08-27T00:24:34.169Z,11.73
2022-08-27T00:27:02.580Z,11.97
2022-08-27T00:29:30.870Z,12.30
2022-08-27T00:31:59.891Z,12.20
2022-08-27T00:34:29.946Z,14.63
2022-08-27T00:36:58.341Z,12.50
2022-08-27T00:39:26.731Z,13.80
2022-08-27T00:41:55.030Z,12.30
2022-08-27T00:44:23.157Z,14.10
2022-08-27T00:46:54.824Z,11.87
2022-08-27T00:49:25.829Z,15.33
2022-08-27T00:51:58.828Z,12.77
2022-08-27T00:54:29.156Z,13.93
2022-08-27T00:56:59.618Z,12.30
2022-08-27T00:59:31.207Z,13.23
2022-08-27T01:02:17.343Z,13.33
2022-08-27T01:04:48.113Z,14.40
2022-08-27T01:07:17.811Z,16.87
2022-08-27T01:09:48.335Z,13.20
2022-08-27T01:12:18.657Z,13.73
2022-08-27T01:14:47.804Z,12.63
2022-08-27T01:17:17.284Z,16.13
2022-08-27T01:19:50.719Z,17.43
2022-08-27T01:22:42.735Z,14.60
2022-08-27T01:25:16.379Z,13.37
2022-08-27T01:27:45.992Z,12.40
2022-08-27T01:30:17.240Z,13.00
2022-08-27T01:32:46.634Z,13.93
2022-08-27T01:35:16.054Z,15.40
2022-08-27T01:37:46.587Z,12.40
2022-08-27T01:40:19.051Z,17.10
2022-08-27T01:42:51.063Z,13.17
2022-08-27T01:45:21.482Z,15.60
2022-08-27T01:47:49.645Z,14.53
2022-08-27T01:50:23.035Z,14.33
2022-08-27T01:52:51.625Z,12.90
2022-08-27T01:55:25.086Z,12.70
2022-08-27T01:57:54.254Z,12.03
2022-08-27T02:00:26.907Z,14.57
2022-08-27T02:02:55.584Z,14.90
2022-08-27T02:05:24.535Z,16.70
2022-08-27T02:07:54.302Z,12.40
2022-08-27T02:10:27.563Z,13.23
2022-08-27T02:12:55.909Z,15.37
2022-08-27T02:15:25.416Z,14.43
2022-08-27T02:17:53.840Z,17.20
2022-08-27T02:20:24.087Z,14.90
2022-08-27T02:22:57.983Z,13.83
2022-08-27T02:25:29.001Z,12.73
2022-08-27T02:28:00.775Z,13.50
2022-08-27T02:30:32.139Z,14.03
2022-08-27T02:33:01.181Z,21.60
2022-08-27T02:35:31.427Z,21.60
2022-08-27T02:38:00.988Z,22.00
2022-08-27T02:40:31.003Z,18.77
2022-08-27T02:42:59.323Z,24.53
2022-08-27T02:45:27.683Z,30.23
2022-08-27T02:47:56.140Z,19.87
2022-08-27T02:50:26.850Z,18.37
2022-08-27T02:52:56.160Z,20.17
2022-08-27T02:55:24.695Z,19.13
2022-08-27T02:57:54.236Z,19.97
2022-08-27T03:00:24.919Z,18.10
2022-08-27T03:02:53.386Z,14.10
2022-08-27T03:05:21.891Z,15.07
2022-08-27T03:07:50.653Z,14.70
2022-08-27T03:10:20.710Z,16.70
2022-08-27T03:12:49.552Z,14.53
2022-08-27T03:15:20.281Z,19.17
2022-08-27T03:18:06.211Z,21.07
2022-08-27T03:20:34.767Z,14.00
2022-08-27T03:23:02.959Z,19.83
2022-08-27T03:25:32.080Z,17.03
2022-08-27T03:28:01.344Z,18.53
2022-08-27T03:30:31.103Z,16.20
2022-08-27T03:32:59.303Z,20.07
2022-08-27T03:35:27.668Z,16.83
2022-08-27T03:37:58.255Z,20.63
2022-08-27T03:40:26.631Z,15.93
2022-08-27T03:42:54.877Z,15.47
2022-08-27T03:45:23.576Z,24.50
2022-08-27T03:47:53.832Z,16.97
2022-08-27T03:50:22.208Z,16.63
2022-08-27T03:52:50.491Z,18.87
2022-08-27T03:55:18.739Z,15.10
2022-08-27T03:57:47.027Z,18.60
2022-08-27T04:00:15.616Z,16.30
2022-08-27T04:02:45.943Z,15.33
2022-08-27T04:05:15.962Z,18.67
2022-08-27T04:07:45.232Z,19.57
2022-08-27T04:10:14.483Z,17.43
2022-08-27T04:12:43.348Z,23.00
2022-08-27T04:15:13.816Z,20.20
2022-08-27T04:17:42.483Z,18.23
2022-08-27T04:20:34.129Z,25.30
2022-08-27T04:23:01.871Z,26.63
2022-08-27T04:25:30.166Z,17.93
2022-08-27T04:27:59.173Z,21.20
2022-08-27T04:30:27.520Z,19.00
2022-08-27T04:32:55.863Z,20.63
2022-08-27T04:35:24.032Z,23.90
2022-08-27T04:37:52.324Z,14.67
2022-08-27T04:40:22.384Z,19.40
2022-08-27T04:42:53.159Z,19.90
2022-08-27T04:45:21.564Z,25.13
2022-08-27T04:47:49.958Z,20.50
2022-08-27T04:50:18.272Z,29.10
2022-08-27T04:52:47.777Z,20.67
2022-08-27T04:55:16.172Z,20.23
2022-08-27T04:57:45.670Z,17.93
2022-08-27T05:00:15.308Z,25.03
2022-08-27T05:02:43.500Z,20.60
2022-08-27T05:05:15.524Z,19.13
2022-08-27T05:07:44.919Z,17.63
2022-08-27T05:10:13.136Z,25.23
2022-08-27T05:12:41.607Z,16.87
2022-08-27T05:15:12.747Z,22.10
2022-08-27T05:17:41.206Z,16.30
2022-08-27T05:20:11.078Z,20.40
2022-08-27T05:22:39.814Z,26.13
2022-08-27T05:25:11.253Z,25.23
2022-08-27T05:27:39.928Z,18.53
2022-08-27T05:30:12.107Z,19.97
2022-08-27T05:32:40.444Z,19.80
2022-08-27T05:35:12.855Z,15.83
2022-08-27T05:37:43.591Z,20.20
2022-08-27T05:40:12.472Z,19.43
2022-08-27T05:42:40.714Z,21.90
2022-08-27T05:45:11.191Z,16.37
2022-08-27T05:47:44.421Z,22.20
2022-08-27T05:50:13.213Z,20.40
2022-08-27T05:52:41.406Z,15.70
2022-08-27T05:55:10.183Z,16.40
2022-08-27T05:57:38.679Z,16.80
2022-08-27T06:00:25.232Z,16.60
2022-08-27T06:02:54.928Z,14.97
2022-08-27T06:05:24.028Z,15.93
2022-08-27T06:07:52.330Z,21.07
2022-08-27T06:10:20.680Z,17.10
2022-08-27T06:12:48.897Z,16.90
2022-08-27T06:15:17.187Z,17.70
2022-08-27T06:17:45.408Z,17.77
2022-08-27T06:20:15.258Z,18.33
2022-08-27T06:22:45.736Z,19.13
2022-08-27T06:25:14.009Z,17.90
2022-08-27T06:27:42.172Z,17.17
2022-08-27T06:30:14.671Z,16.73
2022-08-27T06:32:45.676Z,16.53
2022-08-27T06:35:15.383Z,21.00
2022-08-27T06:37:43.530Z,16.50
2022-08-27T06:40:12.959Z,16.13
2022-08-27T06:42:41.369Z,21.73
2022-08-27T06:45:11.061Z,16.50
2022-08-27T06:47:39.604Z,17.97
2022-08-27T06:50:08.519Z,17.70
2022-08-27T06:52:38.393Z,22.37
2022-08-27T06:55:08.252Z,16.80
2022-08-27T06:57:36.795Z,20.43
2022-08-27T07:00:06.199Z,18.07
2022-08-27T07:02:34.496Z,18.33
2022-08-27T07:05:02.724Z,17.93
2022-08-27T07:07:37.176Z,19.73
2022-08-27T07:10:12.099Z,17.70
2022-08-27T07:12:40.680Z,18.80
2022-08-27T07:15:10.109Z,19.10
2022-08-27T07:17:38.286Z,21.17
2022-08-27T07:20:08.438Z,23.00
2022-08-27T07:22:36.803Z,19.57
2022-08-27T07:25:05.543Z,20.27
2022-08-27T07:27:35.463Z,20.83
2022-08-27T07:30:03.890Z,19.70
2022-08-27T07:32:32.100Z,21.47
2022-08-27T07:35:00.570Z,21.43
2022-08-27T07:37:35.240Z,23.20
2022-08-27T07:40:05.564Z,25.73
2022-08-27T07:42:52.506Z,21.20
2022-08-27T07:45:21.112Z,22.60
2022-08-27T07:47:50.251Z,21.53
2022-08-27T07:50:18.657Z,19.63
2022-08-27T07:52:46.992Z,24.23
2022-08-27T07:55:15.954Z,22.80
2022-08-27T07:57:48.090Z,25.33
2022-08-27T08:00:16.758Z,35.47
2022-08-27T08:02:47.559Z,29.00
2022-08-27T08:05:16.936Z,22.30
2022-08-27T08:07:45.239Z,25.40
2022-08-27T08:10:13.687Z,25.67
2022-08-27T08:12:42.656Z,21.47
2022-08-27T08:15:13.482Z,29.20
2022-08-27T08:17:41.766Z,24.80
2022-08-27T08:20:27.419Z,33.70
2022-08-27T08:22:59.952Z,29.23
2022-08-27T08:25:28.543Z,34.97
2022-08-27T08:28:02.726Z,23.50
2022-08-27T08:30:35.189Z,35.30
2022-08-27T08:33:04.116Z,36.67
2022-08-27T08:35:34.163Z,36.40
2022-08-27T08:38:09.398Z,34.20
2022-08-27T08:40:41.760Z,30.97
2022-08-27T08:43:22.451Z,32.03
2022-08-27T08:45:53.035Z,34.40
2022-08-27T08:48:23.536Z,39.33
2022-08-27T08:50:57.125Z,30.20
2022-08-27T08:53:37.728Z,33.37
2022-08-27T08:56:10.384Z,31.90
2022-08-27T08:58:44.972Z,35.73
2022-08-27T09:01:18.491Z,27.27
2022-08-27T09:03:53.704Z,40.70
2022-08-27T09:06:31.751Z,34.50
2022-08-27T09:09:05.407Z,38.47
2022-08-27T09:11:40.741Z,43.40
2022-08-27T09:14:22.165Z,40.97
2022-08-27T09:16:56.351Z,39.70
2022-08-27T09:19:25.867Z,42.63
2022-08-27T09:21:59.967Z,39.27
2022-08-27T09:24:38.635Z,38.23
2022-08-27T09:27:07.179Z,40.80
2022-08-27T09:29:37.764Z,42.40
2022-08-27T09:32:10.511Z,34.80
2022-08-27T09:34:40.635Z,32.13
2022-08-27T09:37:15.260Z,36.10
2022-08-27T09:39:52.365Z,39.30
2022-08-27T09:42:30.971Z,47.80
2022-08-27T09:44:59.284Z,42.40
2022-08-27T09:47:29.082Z,41.77
2022-08-27T09:50:06.988Z,45.83
2022-08-27T09:52:40.616Z,47.57
2022-08-27T09:55:09.444Z,43.47
2022-08-27T09:57:41.652Z,43.10
2022-08-27T10:00:16.813Z,40.40
2022-08-27T10:02:54.001Z,50.90
2022-08-27T10:05:29.268Z,43.27
2022-08-27T10:08:02.816Z,46.27
2022-08-27T10:10:40.979Z,44.27
2022-08-27T10:13:17.070Z,51.87
2022-08-27T10:15:54.805Z,49.10
2022-08-27T10:18:32.581Z,46.03
2022-08-27T10:21:08.790Z,47.67
2022-08-27T10:23:43.508Z,44.83
2022-08-27T10:26:18.499Z,39.90
2022-08-27T10:29:00.204Z,43.20
2022-08-27T10:31:41.405Z,46.10
2022-08-27T10:34:31.579Z,44.53
2022-08-27T10:37:11.365Z,46.60
2022-08-27T10:40:03.218Z,48.53
2022-08-27T10:42:36.689Z,51.03
2022-08-27T10:45:30.589Z,42.83
2022-08-27T10:48:08.012Z,42.13
2022-08-27T10:50:45.675Z,42.43
2022-08-27T10:53:27.649Z,46.00
2022-08-27T10:56:07.780Z,37.20
2022-08-27T10:58:53.158Z,36.83
2022-08-27T11:01:28.960Z,33.27
2022-08-27T11:04:02.644Z,34.30
2022-08-27T11:06:37.059Z,32.80
2022-08-27T11:09:12.727Z,33.50
2022-08-27T11:14:38.744Z,33.47
2022-08-27T11:17:14.543Z,26.83
2022-08-27T11:19:49.620Z,27.00
2022-08-27T11:22:26.889Z,31.10
2022-08-27T11:25:02.397Z,27.80
2022-08-27T11:27:33.786Z,30.20
2022-08-27T11:30:08.296Z,29.40
2022-08-27T11:32:46.534Z,29.27
2022-08-27T11:35:22.675Z,26.43
2022-08-27T11:38:27.820Z,24.37
2022-08-27T11:41:09.724Z,28.40
2022-08-27T11:43:38.731Z,26.10
2022-08-27T11:46:09.323Z,25.30
2022-08-27T11:48:40.574Z,24.90
2022-08-27T11:51:11.919Z,21.00
2022-08-27T11:53:52.365Z,25.77
2022-08-27T11:56:39.684Z,23.63
2022-08-27T11:59:22.603Z,21.70
2022-08-27T12:01:52.776Z,18.60
2022-08-27T12:04:33.785Z,20.67
2022-08-27T12:07:06.303Z,19.77
2022-08-27T12:09:56.183Z,17.00
2022-08-27T12:12:35.027Z,18.77
2022-08-27T12:15:09.467Z,17.70
2022-08-27T12:17:46.428Z,13.17
2022-08-27T12:20:24.764Z,13.10
2022-08-27T12:23:25.904Z,12.37
2022-08-27T12:26:01.664Z,12.93
2022-08-27T12:28:30.477Z,13.77
2022-08-27T12:30:58.942Z,13.90
2022-08-27T12:33:32.915Z,14.87
2022-08-27T12:36:09.972Z,13.60
2022-08-27T12:38:50.593Z,15.70
2022-08-27T12:41:28.878Z,14.33
2022-08-27T12:44:08.997Z,15.10
2022-08-27T12:46:46.692Z,14.53
2022-08-27T12:49:39.009Z,13.17
2022-08-27T12:52:20.097Z,11.40
2022-08-27T12:55:02.915Z,12.50
2022-08-27T12:57:40.224Z,11.50
2022-08-27T13:00:14.925Z,14.20
2022-08-27T13:03:08.294Z,14.30
2022-08-27T13:05:41.936Z,12.37
2022-08-27T13:08:21.324Z,13.93
2022-08-27T13:10:50.031Z,12.17
2022-08-27T13:13:22.299Z,12.10
2022-08-27T13:15:53.200Z,11.80
2022-08-27T13:18:22.383Z,13.50
2022-08-27T13:21:01.084Z,10.87
2022-08-27T13:23:30.034Z,11.57
2022-08-27T13:26:04.448Z,12.17
2022-08-27T13:28:35.558Z,11.20
2022-08-27T13:31:05.119Z,11.63
2022-08-27T13:33:36.108Z,9.63
2022-08-27T13:36:06.787Z,9.10
2022-08-27T13:38:37.566Z,12.90
2022-08-27T13:41:08.851Z,10.27
2022-08-27T13:43:42.380Z,8.77
2022-08-27T13:46:14.060Z,9.00
2022-08-27T13:48:43.550Z,7.97
2022-08-27T13:51:13.343Z,9.10
2022-08-27T13:54:05.031Z,7.20
2022-08-27T13:56:35.742Z,7.90
2022-08-27T13:59:13.271Z,7.70
2022-08-27T14:01:54.992Z,6.53
2022-08-27T14:04:26.195Z,7.30
2022-08-27T14:06:55.671Z,8.10
2022-08-27T14:09:27.800Z,8.10
2022-08-27T14:12:01.927Z,7.20
2022-08-27T14:14:37.027Z,7.23
2022-08-27T14:17:08.821Z,8.73
2022-08-27T14:19:37.583Z,9.73
2022-08-27T14:22:06.295Z,8.27
2022-08-27T14:24:34.774Z,8.20
2022-08-27T14:27:07.464Z,8.27
2022-08-27T14:29:37.883Z,8.20
2022-08-27T14:32:06.554Z,8.03
2022-08-27T14:34:35.072Z,9.40
2022-08-27T14:37:03.945Z,7.80
2022-08-27T14:39:32.632Z,9.37
2022-08-27T14:42:00.835Z,7.80
2022-08-27T14:44:29.257Z,7.50
2022-08-27T14:47:00.082Z,9.03
2022-08-27T14:49:34.594Z,7.00
2022-08-27T14:52:04.111Z,7.87
2022-08-27T14:54:33.763Z,7.50
2022-08-27T14:57:02.960Z,8.13
2022-08-27T14:59:31.795Z,8.90
2022-08-27T15:02:02.595Z,10.00
2022-08-27T15:04:32.371Z,8.83
2022-08-27T15:07:00.890Z,13.10
2022-08-27T15:09:30.023Z,9.93
2022-08-27T15:11:59.301Z,10.50
2022-08-27T15:14:30.069Z,9.03
2022-08-27T15:16:58.483Z,9.67
2022-08-27T15:19:29.063Z,11.53
2022-08-27T15:22:04.017Z,10.40
2022-08-27T15:24:40.111Z,10.47
2022-08-27T15:27:08.617Z,10.47
2022-08-27T15:29:36.798Z,10.17
2022-08-27T15:32:05.934Z,11.17
2022-08-27T15:34:35.815Z,10.23
2022-08-27T15:37:04.146Z,11.27
2022-08-27T15:39:32.447Z,11.77
2022-08-27T15:42:06.794Z,11.80
2022-08-27T15:44:35.592Z,14.50
2022-08-27T15:47:03.764Z,12.53
2022-08-27T15:49:31.907Z,11.90
2022-08-27T15:52:01.793Z,11.07
2022-08-27T15:54:30.162Z,12.83
2022-08-27T15:57:00.015Z,15.60
2022-08-27T15:59:28.694Z,15.67
2022-08-27T16:01:57.547Z,12.17
2022-08-27T16:04:25.790Z,13.30
2022-08-27T16:06:54.263Z,12.83
2022-08-27T16:09:24.002Z,12.27
2022-08-27T16:11:52.221Z,10.87
2022-08-27T16:14:20.447Z,11.93
2022-08-27T16:16:50.418Z,13.20
2022-08-27T16:19:20.016Z,18.00
2022-08-27T16:21:49.894Z,13.20
2022-08-27T16:24:21.520Z,13.00
2022-08-27T16:26:51.583Z,14.43
2022-08-27T16:29:19.930Z,14.47
2022-08-27T16:31:48.063Z,13.47
2022-08-27T16:34:21.664Z,12.67
2022-08-27T16:36:49.825Z,12.17
2022-08-27T16:39:17.986Z,11.30
2022-08-27T16:41:46.434Z,11.60
2022-08-27T16:44:17.682Z,10.67
2022-08-27T16:46:45.859Z,13.07
2022-08-27T16:49:31.277Z,12.20
2022-08-27T16:52:00.114Z,11.67
2022-08-27T16:54:28.927Z,12.73
2022-08-27T16:56:57.399Z,12.03
2022-08-27T16:59:27.237Z,13.97
2022-08-27T17:01:56.505Z,11.87
2022-08-27T17:04:31.256Z,12.07
2022-08-27T17:07:02.814Z,11.10
2022-08-27T17:09:31.885Z,13.43
2022-08-27T17:12:04.415Z,13.10
2022-08-27T17:14:37.727Z,21.27
2022-08-27T17:17:09.661Z,15.80
2022-08-27T17:19:37.981Z,14.17
2022-08-27T17:22:09.399Z,14.80
2022-08-27T17:24:37.717Z,14.70
2022-08-27T17:27:06.486Z,15.27
2022-08-27T17:29:36.800Z,15.67
2022-08-27T17:32:06.285Z,14.63
2022-08-27T17:34:34.934Z,15.80
2022-08-27T17:37:03.107Z,14.40
2022-08-27T17:39:31.370Z,18.00
2022-08-27T17:41:59.949Z,15.53
2022-08-27T17:44:31.573Z,15.17
2022-08-27T17:47:03.983Z,14.80
2022-08-27T17:49:32.658Z,14.90
2022-08-27T17:52:02.578Z,15.80
2022-08-27T17:54:34.099Z,25.33
2022-08-27T17:57:03.843Z,14.60
2022-08-27T17:59:32.047Z,15.50
2022-08-27T18:02:02.557Z,18.30
2022-08-27T18:04:30.779Z,17.80
2022-08-27T18:06:59.134Z,14.93
2022-08-27T18:09:27.262Z,19.03
2022-08-27T18:11:56.545Z,16.60
2022-08-27T18:14:25.022Z,19.37
2022-08-27T18:16:53.235Z,14.90
2022-08-27T18:19:22.859Z,22.63
2022-08-27T18:21:52.276Z,15.33
2022-08-27T18:24:20.810Z,17.07
2022-08-27T18:26:49.516Z,17.37
2022-08-27T18:29:17.979Z,14.40
2022-08-27T18:31:46.224Z,13.80
2022-08-27T18:34:20.095Z,13.60
2022-08-27T18:36:50.427Z,13.37
2022-08-27T18:39:20.036Z,14.73
2022-08-27T18:41:48.259Z,13.73
2022-08-27T18:44:17.601Z,16.17
2022-08-27T18:46:46.557Z,14.27
2022-08-27T18:49:14.864Z,12.57
2022-08-27T18:51:47.145Z,13.40
2022-08-27T18:54:20.852Z,11.73
2022-08-27T18:56:49.304Z,12.60
2022-08-27T18:59:17.779Z,16.63
2022-08-27T19:01:46.685Z,12.80
2022-08-27T19:04:16.556Z,15.73
2022-08-27T19:06:44.833Z,13.50
2022-08-27T19:09:14.024Z,12.53
2022-08-27T19:11:43.851Z,16.77
2022-08-27T19:14:12.017Z,13.60
2022-08-27T19:16:43.507Z,12.27
2022-08-27T19:19:13.216Z,12.80
2022-08-27T19:21:41.915Z,12.27
2022-08-27T19:24:10.823Z,11.63
2022-08-27T19:26:39.697Z,16.97
2022-08-27T19:29:09.895Z,11.07
2022-08-27T19:31:39.104Z,15.30
2022-08-27T19:34:08.970Z,15.00
2022-08-27T19:36:40.084Z,11.37
2022-08-27T19:39:09.603Z,12.17
2022-08-27T19:41:38.174Z,13.00
2022-08-27T19:44:06.396Z,15.30
2022-08-27T19:46:37.905Z,13.87
2022-08-27T19:49:06.093Z,14.03
2022-08-27T19:51:34.574Z,13.27
2022-08-27T19:54:02.772Z,13.27
2022-08-27T19:56:32.717Z,14.50
2022-08-27T19:59:08.929Z,11.73
2022-08-27T20:01:43.755Z,15.73
2022-08-27T20:04:11.995Z,16.70
2022-08-27T20:06:40.263Z,13.17
2022-08-27T20:09:11.097Z,13.47
2022-08-27T20:11:39.413Z,17.83
2022-08-27T20:14:07.727Z,14.17
2022-08-27T20:16:39.283Z,16.50
2022-08-27T20:19:09.744Z,13.67
2022-08-27T20:21:38.063Z,12.30
2022-08-27T20:24:06.851Z,13.07
2022-08-27T20:26:35.155Z,13.67
2022-08-27T20:29:03.947Z,11.90
2022-08-27T20:31:32.505Z,13.87
2022-08-27T20:34:00.675Z,11.97
2022-08-27T20:36:33.105Z,12.40
2022-08-27T20:39:01.905Z,13.67
2022-08-27T20:41:31.087Z,21.63
2022-08-27T20:43:59.587Z,12.93
2022-08-27T20:46:30.835Z,13.33
2022-08-27T20:48:59.188Z,12.07
2022-08-27T20:51:29.399Z,13.70
2022-08-27T20:53:57.887Z,11.47
2022-08-27T20:56:26.155Z,12.70
2022-08-27T20:59:11.626Z,11.17
2022-08-27T21:01:39.965Z,12.93
2022-08-27T21:04:08.667Z,12.27
2022-08-27T21:06:38.254Z,16.50
2022-08-27T21:09:06.633Z,11.47
2022-08-27T21:11:35.107Z,10.97
2022-08-27T21:14:03.419Z,10.90
2022-08-27T21:16:31.700Z,12.30
2022-08-27T21:19:00.184Z,13.33
2022-08-27T21:21:28.404Z,12.20
2022-08-27T21:23:58.078Z,15.73
2022-08-27T21:26:26.349Z,13.30
2022-08-27T21:28:55.569Z,11.90
2022-08-27T21:31:25.086Z,11.80
2022-08-27T21:33:53.382Z,15.00
2022-08-27T21:36:21.955Z,12.30
2022-08-27T21:38:50.532Z,11.40
2022-08-27T21:41:20.968Z,13.60
2022-08-27T21:43:49.452Z,11.77
2022-08-27T21:46:19.651Z,11.90
2022-08-27T21:48:47.951Z,12.70
2022-08-27T21:51:27.091Z,12.23
2022-08-27T21:53:55.403Z,14.87
2022-08-27T21:56:25.692Z,11.70
2022-08-27T21:58:54.111Z,12.70
2022-08-27T22:01:22.576Z,12.77
2022-08-27T22:03:51.783Z,10.37
2022-08-27T22:06:20.528Z,10.90
2022-08-27T22:08:49.148Z,11.63
2022-08-27T22:11:21.933Z,14.00
2022-08-27T22:13:53.919Z,11.83
2022-08-27T22:16:22.137Z,13.90
2022-08-27T22:18:54.677Z,12.13
2022-08-27T22:21:23.623Z,12.43
2022-08-27T22:23:52.539Z,12.70
2022-08-27T22:26:21.678Z,11.73
2022-08-27T22:28:50.456Z,12.83
2022-08-27T22:31:20.433Z,12.20
2022-08-27T22:33:49.104Z,14.43
2022-08-27T22:36:17.650Z,12.83
2022-08-27T22:38:45.850Z,12.77
2022-08-27T22:41:18.485Z,17.50
2022-08-27T22:43:47.123Z,13.33
2022-08-27T22:46:15.678Z,11.70
2022-08-27T22:48:45.347Z,12.30
2022-08-27T22:51:13.960Z,16.30
2022-08-27T22:53:42.160Z,14.43
2022-08-27T22:56:10.408Z,13.37
2022-08-27T22:58:38.916Z,14.63
2022-08-27T23:01:07.993Z,11.47
2022-08-27T23:03:36.376Z,12.00
2022-08-27T23:06:06.503Z,13.63
2022-08-27T23:08:34.839Z,12.00
2022-08-27T23:11:03.906Z,11.43
2022-08-27T23:13:32.890Z,14.60
2022-08-27T23:16:02.857Z,13.17
2022-08-27T23:18:32.205Z,13.03
2022-08-27T23:21:01.015Z,11.83
2022-08-27T23:23:31.095Z,12.43
2022-08-27T23:26:17.369Z,14.87
2022-08-27T23:28:45.979Z,10.70
2022-08-27T23:31:14.530Z,11.70
2022-08-27T23:33:43.690Z,11.60
2022-08-27T23:36:12.026Z,12.67
2022-08-27T23:38:41.912Z,17.40
2022-08-27T23:41:10.569Z,16.03
2022-08-27T23:43:38.959Z,11.23
2022-08-27T23:46:07.320Z,21.13
2022-08-27T23:48:35.656Z,13.93
2022-08-27T23:51:04.376Z,11.60
2022-08-27T23:53:33.134Z,13.33
2022-08-27T23:56:02.787Z,12.23
2022-08-27T23:58:31.154Z,13.20
